createdAt,value
2018-03-18T00:01:26.062Z,79.20
2018-03-18T00:03:53.919Z,81.30
2018-03-18T00:06:21.767Z,82.40
2018-03-18T00:08:49.618Z,82.20
2018-03-18T00:11:17.469Z,82.40
2018-03-18T00:13:45.322Z,78.60
2018-03-18T00:16:13.071Z,78.20
2018-03-18T00:18:40.820Z,78.50
2018-03-18T00:21:08.673Z,77.40
2018-03-18T00:23:36.425Z,76.40
2018-03-18T00:26:04.272Z,77.00
2018-03-18T00:28:32.226Z,76.80
2018-03-18T00:31:00.016Z,78.00
2018-03-18T00:33:27.827Z,79.20
2018-03-18T00:35:55.582Z,80.70
2018-03-18T00:38:23.433Z,81.20
2018-03-18T00:40:51.181Z,84.10
2018-03-18T00:43:18.933Z,83.20
2018-03-18T00:45:46.782Z,80.60
2018-03-18T00:48:14.575Z,82.00
2018-03-18T00:50:42.382Z,83.30
2018-03-18T00:53:10.052Z,80.90
2018-03-18T00:55:38.597Z,82.10
2018-03-18T00:58:06.451Z,82.10
2018-03-18T01:00:34.201Z,81.70
2018-03-18T01:03:02.070Z,80.10
2018-03-18T01:05:29.902Z,79.30
2018-03-18T01:07:57.652Z,79.50
2018-03-18T01:10:25.404Z,79.90
2018-03-18T01:12:53.255Z,78.90
2018-03-18T01:15:21.006Z,77.10
2018-03-18T01:17:48.754Z,77.70
2018-03-18T01:20:16.503Z,79.10
2018-03-18T01:22:44.252Z,79.20
2018-03-18T01:25:12.104Z,79.50
2018-03-18T01:27:39.854Z,80.20
2018-03-18T01:30:07.705Z,79.10
2018-03-18T01:32:35.458Z,78.30
2018-03-18T01:35:03.307Z,78.30
2018-03-18T01:37:31.091Z,77.30
2018-03-18T01:39:59.624Z,78.40
2018-03-18T01:42:27.475Z,78.50
2018-03-18T01:44:55.228Z,79.00
2018-03-18T01:47:22.976Z,79.10
2018-03-18T01:49:50.828Z,81.90
2018-03-18T01:52:18.683Z,80.90
2018-03-18T01:54:46.532Z,80.80
2018-03-18T01:57:14.192Z,80.10
2018-03-18T01:59:42.030Z,78.50
2018-03-18T02:02:09.882Z,78.00
2018-03-18T02:04:37.632Z,81.20
2018-03-18T02:07:05.422Z,82.00
2018-03-18T02:09:33.232Z,81.20
2018-03-18T02:12:00.981Z,79.40
2018-03-18T02:14:28.833Z,80.40
2018-03-18T02:16:56.787Z,80.90
2018-03-18T02:19:24.543Z,79.60
2018-03-18T02:21:52.498Z,78.90
2018-03-18T02:24:20.243Z,78.80
2018-03-18T02:26:48.095Z,79.10
2018-03-18T02:29:15.946Z,79.20
2018-03-18T02:31:43.701Z,79.20
2018-03-18T02:34:11.550Z,80.20
2018-03-18T02:36:39.400Z,80.80
2018-03-18T02:39:07.078Z,81.50
2018-03-18T02:41:34.897Z,79.50
2018-03-18T02:44:02.648Z,78.80
2018-03-18T02:46:30.498Z,80.00
2018-03-18T02:48:58.351Z,80.30
2018-03-18T02:51:26.307Z,79.00
2018-03-18T02:53:54.158Z,80.00
2018-03-18T02:56:22.011Z,80.70
2018-03-18T02:58:49.862Z,82.00
2018-03-18T03:01:17.536Z,80.00
2018-03-18T03:03:46.181Z,79.70
2018-03-18T03:06:13.930Z,79.70
2018-03-18T03:08:41.640Z,79.80
2018-03-18T03:11:09.428Z,79.30
2018-03-18T03:13:37.279Z,81.00
2018-03-18T03:16:05.130Z,79.60
2018-03-18T03:18:32.811Z,79.70
2018-03-18T03:21:01.347Z,79.70
2018-03-18T03:23:29.198Z,80.50
2018-03-18T03:25:57.051Z,81.10
2018-03-18T03:28:24.801Z,79.40
2018-03-18T03:30:52.658Z,78.30
2018-03-18T03:33:20.506Z,78.30
2018-03-18T03:35:48.357Z,79.10
2018-03-18T03:38:16.044Z,78.40
2018-03-18T03:40:44.574Z,78.10
2018-03-18T03:43:12.424Z,78.20
2018-03-18T03:45:40.092Z,77.30
2018-03-18T03:48:08.639Z,76.40
2018-03-18T03:50:36.388Z,76.40
2018-03-18T03:53:04.240Z,77.10
2018-03-18T03:55:31.990Z,77.30
2018-03-18T03:57:59.841Z,77.80
2018-03-18T04:00:27.608Z,77.90
2018-03-18T04:02:55.445Z,77.40
2018-03-18T04:05:23.296Z,77.00
2018-03-18T04:07:51.049Z,76.00
2018-03-18T04:10:18.898Z,76.20
2018-03-18T04:12:46.750Z,76.90
2018-03-18T04:15:14.601Z,77.90
2018-03-18T04:17:42.355Z,76.60
2018-03-18T04:20:10.202Z,77.10
2018-03-18T04:22:37.952Z,76.10
2018-03-18T04:25:05.802Z,76.00
2018-03-18T04:27:33.552Z,77.50
2018-03-18T04:30:01.302Z,77.40
2018-03-18T04:32:29.153Z,77.40
2018-03-18T04:34:57.004Z,78.40
2018-03-18T04:37:24.757Z,77.00
2018-03-18T04:39:52.609Z,76.50
2018-03-18T04:42:20.468Z,75.90
2018-03-18T04:44:48.136Z,76.20
2018-03-18T04:47:16.676Z,77.80
2018-03-18T04:49:44.440Z,77.90
2018-03-18T04:52:12.288Z,77.70
2018-03-18T04:54:40.129Z,76.90
2018-03-18T04:57:07.981Z,76.50
2018-03-18T04:59:35.729Z,77.30
2018-03-18T05:02:03.481Z,76.70
2018-03-18T05:04:31.334Z,76.70
2018-03-18T05:06:59.182Z,77.10
2018-03-18T05:09:27.036Z,77.40
2018-03-18T05:11:54.786Z,78.50
2018-03-18T05:14:22.535Z,77.80
2018-03-18T05:16:50.392Z,78.50
2018-03-18T05:19:18.136Z,79.00
2018-03-18T05:21:45.990Z,77.50
2018-03-18T05:24:13.736Z,77.70
2018-03-18T05:26:41.587Z,77.10
2018-03-18T05:29:09.276Z,76.10
2018-03-18T05:31:37.087Z,76.40
2018-03-18T05:34:04.838Z,76.20
2018-03-18T05:36:32.689Z,75.70
2018-03-18T05:39:00.543Z,76.10
2018-03-18T05:41:28.391Z,75.90
2018-03-18T05:43:56.348Z,76.90
2018-03-18T05:46:24.099Z,77.00
2018-03-18T05:48:51.953Z,76.70
2018-03-18T05:51:19.800Z,76.50
2018-03-18T05:53:47.652Z,75.60
2018-03-18T05:56:15.401Z,76.30
2018-03-18T05:58:43.150Z,76.00
2018-03-18T06:01:11.002Z,76.00
2018-03-18T06:03:38.763Z,75.50
2018-03-18T06:06:06.605Z,76.20
2018-03-18T06:08:34.454Z,77.00
2018-03-18T06:11:02.204Z,76.60
2018-03-18T06:13:29.952Z,75.80
2018-03-18T06:15:57.811Z,76.80
2018-03-18T06:18:25.659Z,76.10
2018-03-18T06:20:53.511Z,77.50
2018-03-18T06:23:21.264Z,76.90
2018-03-18T06:25:49.112Z,76.30
2018-03-18T06:28:16.861Z,76.30
2018-03-18T06:30:44.610Z,75.60
2018-03-18T06:33:12.462Z,75.90
2018-03-18T06:35:40.313Z,76.00
2018-03-18T06:38:08.166Z,75.50
2018-03-18T06:40:35.916Z,76.00
2018-03-18T06:43:03.664Z,76.10
2018-03-18T06:45:31.516Z,75.70
2018-03-18T06:47:59.471Z,75.70
2018-03-18T06:50:27.321Z,76.00
2018-03-18T06:52:55.181Z,76.00
2018-03-18T06:55:23.027Z,75.80
2018-03-18T06:57:50.778Z,76.40
2018-03-18T07:00:18.529Z,76.80
2018-03-18T07:02:46.379Z,76.10
2018-03-18T07:05:14.230Z,75.80
2018-03-18T07:07:41.979Z,76.00
2018-03-18T07:10:09.729Z,75.60
2018-03-18T07:12:37.579Z,76.00
2018-03-18T07:15:05.330Z,77.30
2018-03-18T07:17:33.079Z,76.20
2018-03-18T07:20:00.938Z,76.80
2018-03-18T07:22:28.679Z,76.40
2018-03-18T07:24:56.521Z,75.60
2018-03-18T07:27:24.386Z,76.20
2018-03-18T07:29:52.135Z,75.50
2018-03-18T07:32:19.884Z,74.90
2018-03-18T07:34:47.736Z,75.00
2018-03-18T07:37:15.485Z,75.10
2018-03-18T07:39:43.336Z,74.60
2018-03-18T07:42:11.103Z,75.20
2018-03-18T07:44:38.936Z,75.70
2018-03-18T07:47:06.788Z,75.30
2018-03-18T07:49:34.641Z,74.60
2018-03-18T07:52:02.398Z,74.20
2018-03-18T07:54:30.241Z,74.40
2018-03-18T07:56:57.990Z,75.50
2018-03-18T07:59:25.845Z,76.50
2018-03-18T08:01:53.594Z,75.90
2018-03-18T08:04:21.446Z,74.70
2018-03-18T08:06:49.298Z,74.50
2018-03-18T08:09:17.153Z,74.90
2018-03-18T08:11:45.001Z,74.60
2018-03-18T08:14:12.796Z,74.30
2018-03-18T08:16:40.601Z,74.30
2018-03-18T08:19:09.212Z,74.80
2018-03-18T08:21:37.023Z,74.80
2018-03-18T08:24:04.876Z,75.10
2018-03-18T08:26:32.623Z,74.40
2018-03-18T08:29:00.474Z,74.10
2018-03-18T08:31:28.327Z,75.60
2018-03-18T08:33:56.079Z,75.50
2018-03-18T08:36:23.830Z,74.80
2018-03-18T08:38:51.680Z,76.00
2018-03-18T08:41:19.532Z,75.50
2018-03-18T08:43:47.469Z,74.80
2018-03-18T08:46:15.235Z,74.50
2018-03-18T08:48:43.086Z,74.80
2018-03-18T08:51:10.938Z,74.90
2018-03-18T08:53:38.789Z,76.70
2018-03-18T08:56:06.539Z,75.60
2018-03-18T08:58:35.209Z,75.80
2018-03-18T09:01:02.958Z,75.80
2018-03-18T09:03:30.810Z,74.80
2018-03-18T09:05:58.664Z,74.10
2018-03-18T09:08:26.466Z,74.10
2018-03-18T09:10:54.266Z,74.70
2018-03-18T09:13:22.015Z,76.30
2018-03-18T09:15:49.867Z,75.80
2018-03-18T09:18:17.719Z,75.60
2018-03-18T09:20:45.403Z,75.00
2018-03-18T09:23:13.217Z,74.90
2018-03-18T09:25:41.068Z,75.30
2018-03-18T09:28:08.933Z,74.50
2018-03-18T09:30:36.772Z,73.90
2018-03-18T09:33:04.625Z,73.30
2018-03-18T09:35:32.373Z,74.00
2018-03-18T09:38:00.224Z,73.50
2018-03-18T09:40:27.976Z,74.50
2018-03-18T09:42:55.841Z,74.10
2018-03-18T09:45:23.684Z,74.00
2018-03-18T09:47:51.588Z,74.70
2018-03-18T09:50:19.385Z,74.40
2018-03-18T09:52:47.236Z,73.90
2018-03-18T09:55:15.087Z,73.80
2018-03-18T09:57:42.938Z,74.80
2018-03-18T10:00:10.688Z,74.10
2018-03-18T10:02:38.539Z,74.70
2018-03-18T10:05:06.392Z,73.70
2018-03-18T10:07:34.202Z,74.10
2018-03-18T10:10:01.993Z,73.80
2018-03-18T10:12:29.743Z,74.60
2018-03-18T10:14:57.594Z,75.10
2018-03-18T10:17:25.450Z,75.50
2018-03-18T10:19:53.198Z,75.60
2018-03-18T10:22:21.048Z,74.60
2018-03-18T10:24:48.900Z,74.90
2018-03-18T10:27:16.649Z,74.80
2018-03-18T10:29:44.400Z,75.50
2018-03-18T10:32:12.251Z,74.90
2018-03-18T10:34:40.104Z,75.20
2018-03-18T10:37:07.953Z,75.00
2018-03-18T10:39:35.813Z,74.70
2018-03-18T10:42:03.708Z,75.00
2018-03-18T10:44:31.509Z,74.90
2018-03-18T10:46:59.258Z,74.80
2018-03-18T10:49:27.212Z,74.20
2018-03-18T10:51:55.067Z,74.20
2018-03-18T10:54:22.921Z,74.50
2018-03-18T10:56:50.667Z,73.80
2018-03-18T10:59:18.573Z,73.50
2018-03-18T11:01:49.239Z,74.00
2018-03-18T11:04:18.014Z,74.40
2018-03-18T11:06:45.853Z,73.80
2018-03-18T11:09:13.983Z,75.30
2018-03-18T11:11:41.777Z,74.60
2018-03-18T11:14:09.735Z,73.80
2018-03-18T11:16:37.535Z,74.10
2018-03-18T11:19:05.270Z,73.40
2018-03-18T11:21:34.820Z,72.70
2018-03-18T11:24:02.671Z,72.90
2018-03-18T11:26:30.829Z,74.10
2018-03-18T11:28:59.290Z,74.40
2018-03-18T11:31:27.247Z,74.50
2018-03-18T11:33:55.102Z,73.50
2018-03-18T11:36:22.851Z,73.20
2018-03-18T11:38:50.703Z,73.40
2018-03-18T11:41:18.453Z,73.40
2018-03-18T11:43:46.305Z,73.70
2018-03-18T11:46:14.158Z,73.60
2018-03-18T11:48:42.519Z,75.30
2018-03-18T11:51:10.371Z,75.20
2018-03-18T11:53:38.377Z,74.40
2018-03-18T11:56:06.279Z,74.10
2018-03-18T11:58:34.139Z,75.50
2018-03-18T12:01:02.095Z,75.20
2018-03-18T12:03:30.757Z,74.30
2018-03-18T12:05:59.197Z,75.00
2018-03-18T12:08:39.771Z,74.80
2018-03-18T12:11:07.520Z,74.70
2018-03-18T12:13:35.347Z,75.30
2018-03-18T12:16:03.223Z,75.00
2018-03-18T12:18:30.948Z,75.70
2018-03-18T12:21:04.777Z,74.80
2018-03-18T12:23:32.507Z,75.60
2018-03-18T12:26:00.176Z,74.50
2018-03-18T12:28:28.011Z,74.40
2018-03-18T12:30:55.870Z,74.80
2018-03-18T12:33:24.564Z,75.70
2018-03-18T12:35:53.210Z,74.30
2018-03-18T12:38:21.370Z,75.20
2018-03-18T12:40:51.888Z,74.50
2018-03-18T12:43:27.842Z,74.40
2018-03-18T12:45:55.607Z,75.60
2018-03-18T12:48:24.257Z,75.60
2018-03-18T12:50:52.099Z,75.70
2018-03-18T12:53:20.329Z,75.50
2018-03-18T12:55:49.028Z,77.10
2018-03-18T12:58:16.779Z,77.20
2018-03-18T13:00:44.630Z,76.30
2018-03-18T13:03:12.486Z,76.50
2018-03-18T13:05:41.151Z,75.10
2018-03-18T13:08:08.899Z,75.00
2018-03-18T13:10:36.750Z,73.80
2018-03-18T13:13:04.603Z,74.40
2018-03-18T13:15:32.283Z,75.30
2018-03-18T13:18:00.925Z,74.30
2018-03-18T13:20:28.773Z,74.30
2018-03-18T13:22:56.725Z,76.50
2018-03-18T13:25:24.486Z,77.10
2018-03-18T13:27:53.252Z,77.10
2018-03-18T13:30:21.206Z,77.20
2018-03-18T13:32:48.937Z,77.00
2018-03-18T13:35:16.703Z,75.90
2018-03-18T13:37:44.525Z,74.60
2018-03-18T13:40:12.408Z,76.10
2018-03-18T13:42:40.265Z,75.60
2018-03-18T13:45:08.114Z,74.70
2018-03-18T13:47:35.962Z,74.40
2018-03-18T13:50:03.815Z,74.60
2018-03-18T13:52:31.666Z,75.60
2018-03-18T13:54:59.519Z,76.80
2018-03-18T13:57:27.471Z,75.60
2018-03-18T13:59:55.229Z,75.20
2018-03-18T14:02:22.908Z,74.70
2018-03-18T14:04:51.440Z,73.60
2018-03-18T14:07:19.291Z,73.60
2018-03-18T14:09:47.084Z,73.00
2018-03-18T14:12:14.831Z,74.30
2018-03-18T14:14:42.643Z,74.60
2018-03-18T14:17:10.400Z,74.10
2018-03-18T14:19:38.128Z,73.50
2018-03-18T14:22:05.824Z,74.20
2018-03-18T14:24:34.276Z,73.60
2018-03-18T14:27:02.113Z,73.60
2018-03-18T14:29:29.965Z,73.80
2018-03-18T14:31:57.713Z,73.90
2018-03-18T14:34:25.466Z,73.10
2018-03-18T14:36:53.318Z,73.20
2018-03-18T14:39:21.989Z,72.70
2018-03-18T14:41:49.840Z,72.50
2018-03-18T14:44:17.697Z,72.40
2018-03-18T14:46:45.416Z,73.30
2018-03-18T14:49:13.098Z,73.40
2018-03-18T14:51:40.943Z,73.20
2018-03-18T14:54:08.790Z,74.10
2018-03-18T14:56:36.541Z,74.10
2018-03-18T14:59:04.391Z,74.20
2018-03-18T15:01:32.130Z,74.30
2018-03-18T15:03:59.993Z,74.50
2018-03-18T15:06:27.742Z,73.80
2018-03-18T15:08:55.599Z,73.90
2018-03-18T15:11:23.448Z,73.80
2018-03-18T15:13:51.199Z,74.30
2018-03-18T15:16:18.948Z,74.00
2018-03-18T15:18:46.800Z,73.40
2018-03-18T15:21:14.548Z,73.90
2018-03-18T15:23:42.296Z,74.50
2018-03-18T15:26:10.152Z,73.80
2018-03-18T15:28:37.899Z,73.20
2018-03-18T15:31:05.750Z,73.30
2018-03-18T15:33:33.499Z,72.90
2018-03-18T15:36:01.350Z,72.80
2018-03-18T15:38:29.100Z,71.90
2018-03-18T15:40:56.963Z,72.10
2018-03-18T15:43:24.808Z,72.30
2018-03-18T15:45:52.557Z,72.10
2018-03-18T15:48:20.416Z,72.40
2018-03-18T15:50:48.259Z,72.70
2018-03-18T15:53:16.113Z,74.70
2018-03-18T15:55:43.860Z,73.00
2018-03-18T15:58:11.713Z,72.60
2018-03-18T16:00:42.384Z,73.20
2018-03-18T16:03:10.285Z,73.30
2018-03-18T16:05:38.135Z,73.80
2018-03-18T16:08:05.985Z,73.50
2018-03-18T16:10:33.837Z,72.70
2018-03-18T16:13:01.593Z,72.70
2018-03-18T16:15:29.540Z,72.80
2018-03-18T16:17:57.494Z,73.30
2018-03-18T16:20:25.354Z,74.20
2018-03-18T16:22:53.200Z,73.60
2018-03-18T16:25:21.053Z,73.10
2018-03-18T16:27:48.904Z,71.70
2018-03-18T16:30:28.674Z,72.30
2018-03-18T16:32:56.589Z,71.40
2018-03-18T16:35:24.347Z,71.50
2018-03-18T16:37:52.190Z,71.30
2018-03-18T16:40:20.040Z,71.50
2018-03-18T16:42:47.790Z,70.80
2018-03-18T16:45:15.642Z,70.10
2018-03-18T16:47:43.392Z,70.60
2018-03-18T16:50:11.242Z,70.50
2018-03-18T16:52:39.094Z,70.00
2018-03-18T16:55:06.947Z,71.20
2018-03-18T16:57:34.797Z,72.40
2018-03-18T17:00:02.649Z,72.50
2018-03-18T17:02:30.501Z,70.40
2018-03-18T17:04:58.354Z,70.70
2018-03-18T17:07:26.207Z,70.70
2018-03-18T17:09:54.058Z,71.70
2018-03-18T17:12:21.807Z,71.20
2018-03-18T17:14:49.557Z,69.60
2018-03-18T17:17:17.410Z,70.20
2018-03-18T17:19:45.160Z,69.60
2018-03-18T17:22:12.908Z,69.50
2018-03-18T17:24:41.681Z,69.90
2018-03-18T17:27:10.945Z,69.60
2018-03-18T17:29:38.662Z,69.60
2018-03-18T17:32:06.570Z,69.70
2018-03-18T17:34:34.436Z,70.20
2018-03-18T17:37:02.276Z,70.10
2018-03-18T17:39:30.128Z,70.30
2018-03-18T17:41:58.807Z,70.10
2018-03-18T17:44:38.731Z,70.10
2018-03-18T17:47:18.464Z,70.20
2018-03-18T17:49:59.213Z,70.80
2018-03-18T17:52:38.735Z,70.70
2018-03-18T17:58:07.102Z,71.10
2018-03-18T18:00:34.953Z,71.90
2018-03-18T18:03:02.804Z,71.40
2018-03-18T18:05:30.656Z,71.30
2018-03-18T18:07:58.516Z,71.10
2018-03-18T18:10:26.363Z,70.50
2018-03-18T18:12:54.113Z,70.50
2018-03-18T18:15:22.782Z,72.20
2018-03-18T18:17:50.534Z,72.20
2018-03-18T18:20:18.383Z,73.80
2018-03-18T18:22:46.081Z,73.50
2018-03-18T18:25:13.885Z,73.80
2018-03-18T18:27:41.736Z,72.90
2018-03-18T18:30:09.594Z,72.20
2018-03-18T18:32:37.438Z,72.30
2018-03-18T18:35:05.188Z,72.60
2018-03-18T18:37:33.447Z,72.00
2018-03-18T18:40:01.206Z,72.30
2018-03-18T18:42:29.048Z,72.90
2018-03-18T18:44:57.007Z,71.80
2018-03-18T18:47:24.858Z,70.60
2018-03-18T18:49:52.608Z,71.20
2018-03-18T18:52:21.174Z,74.20
2018-03-18T18:54:48.981Z,74.20
2018-03-18T18:57:16.700Z,72.10
2018-03-18T18:59:45.227Z,71.30
2018-03-18T19:02:12.996Z,71.30
2018-03-18T19:04:40.844Z,71.50
2018-03-18T19:07:08.696Z,71.50
2018-03-18T19:09:36.444Z,70.80
2018-03-18T19:12:04.296Z,71.10
2018-03-18T19:14:32.152Z,71.00
2018-03-18T19:17:00.048Z,69.70
2018-03-18T19:19:27.854Z,69.70
2018-03-18T19:21:56.142Z,70.60
2018-03-18T19:24:24.786Z,71.20
2018-03-18T19:26:52.535Z,71.10
2018-03-18T19:29:20.387Z,70.70
2018-03-18T19:31:48.238Z,70.90
2018-03-18T19:34:16.091Z,72.00
2018-03-18T19:36:43.942Z,71.20
2018-03-18T19:39:11.804Z,71.00
2018-03-18T19:41:39.645Z,70.70
2018-03-18T19:44:07.397Z,70.00
2018-03-18T19:46:35.251Z,71.10
2018-03-18T19:49:03.098Z,69.90
2018-03-18T19:51:30.950Z,70.00
2018-03-18T19:53:58.802Z,70.40
2018-03-18T19:56:26.657Z,68.60
2018-03-18T19:58:54.712Z,70.00
2018-03-18T20:01:22.565Z,70.50
2018-03-18T20:03:50.314Z,70.90
2018-03-18T20:06:18.165Z,70.20
2018-03-18T20:08:46.021Z,69.90
2018-03-18T20:11:13.870Z,70.00
2018-03-18T20:13:41.725Z,69.30
2018-03-18T20:16:09.480Z,71.40
2018-03-18T20:18:37.201Z,70.20
2018-03-18T20:21:05.009Z,69.80
2018-03-18T20:23:32.820Z,68.70
2018-03-18T20:26:00.514Z,69.20
2018-03-18T20:28:28.318Z,69.20
2018-03-18T20:30:56.071Z,69.10
2018-03-18T20:33:23.924Z,68.80
2018-03-18T20:35:51.672Z,68.20
2018-03-18T20:38:19.356Z,69.50
2018-03-18T20:40:47.170Z,68.50
2018-03-18T20:43:14.921Z,66.80
2018-03-18T20:45:42.669Z,68.00
2018-03-18T20:48:10.388Z,67.40
2018-03-18T20:50:38.477Z,66.10
2018-03-18T20:53:06.164Z,65.90
2018-03-18T20:55:33.974Z,66.20
2018-03-18T20:58:01.825Z,66.70
2018-03-18T21:00:29.560Z,66.80
2018-03-18T21:02:57.323Z,67.10
2018-03-18T21:05:25.179Z,67.80
2018-03-18T21:07:53.031Z,69.50
2018-03-18T21:10:20.881Z,70.00
2018-03-18T21:12:48.631Z,68.30
2018-03-18T21:15:16.384Z,67.80
2018-03-18T21:17:44.235Z,67.70
2018-03-18T21:20:12.083Z,67.60
2018-03-18T21:22:39.935Z,68.10
2018-03-18T21:25:07.789Z,67.70
2018-03-18T21:27:35.640Z,67.50
2018-03-18T21:30:03.490Z,67.80
2018-03-18T21:32:31.342Z,67.50
2018-03-18T21:34:59.091Z,68.20
2018-03-18T21:37:27.035Z,68.00
2018-03-18T21:39:54.906Z,67.70
2018-03-18T21:42:23.571Z,67.50
2018-03-18T21:44:51.424Z,67.50
2018-03-18T21:47:19.171Z,66.90
2018-03-18T21:49:47.023Z,66.50
2018-03-18T21:52:14.876Z,66.00
2018-03-18T21:54:42.624Z,66.10
2018-03-18T21:57:10.476Z,66.30
2018-03-18T21:59:38.328Z,67.60
2018-03-18T22:02:06.181Z,68.50
2018-03-18T22:04:34.032Z,67.70
2018-03-18T22:07:01.884Z,67.60
2018-03-18T22:09:29.632Z,67.80
2018-03-18T22:11:57.381Z,67.90
2018-03-18T22:14:25.292Z,67.80
2018-03-18T22:16:53.088Z,68.40
2018-03-18T22:19:20.942Z,68.00
2018-03-18T22:21:48.793Z,68.00
2018-03-18T22:24:16.643Z,67.60
2018-03-18T22:26:44.392Z,67.20
2018-03-18T22:29:12.243Z,66.90
2018-03-18T22:31:40.036Z,67.30
2018-03-18T22:34:07.845Z,67.30
2018-03-18T22:36:35.697Z,67.00
2018-03-18T22:39:03.573Z,66.90
2018-03-18T22:41:32.218Z,67.10
2018-03-18T22:43:59.968Z,67.10
2018-03-18T22:46:27.928Z,67.20
2018-03-18T22:48:55.777Z,67.70
2018-03-18T22:51:23.629Z,67.40
2018-03-18T22:53:51.481Z,67.50
2018-03-18T22:56:19.233Z,67.30
2018-03-18T22:58:47.025Z,66.90
2018-03-18T23:01:14.833Z,67.00
2018-03-18T23:03:42.682Z,67.60
2018-03-18T23:06:10.367Z,67.00
2018-03-18T23:08:38.180Z,67.10
2018-03-18T23:11:05.929Z,67.30
2018-03-18T23:13:33.783Z,67.30
2018-03-18T23:16:01.639Z,67.30
2018-03-18T23:18:29.485Z,67.50
2018-03-18T23:20:57.343Z,67.70
2018-03-18T23:23:25.191Z,67.90
2018-03-18T23:25:52.941Z,68.00
2018-03-18T23:28:20.794Z,68.00
2018-03-18T23:30:48.644Z,67.70
2018-03-18T23:33:16.495Z,67.10
2018-03-18T23:35:44.347Z,66.70
2018-03-18T23:38:12.199Z,67.00
2018-03-18T23:40:40.050Z,66.20
2018-03-18T23:43:07.902Z,66.50
2018-03-18T23:45:35.652Z,66.70
2018-03-18T23:48:03.400Z,66.90
2018-03-18T23:50:31.252Z,66.30
2018-03-18T23:52:59.105Z,67.00
2018-03-18T23:55:26.961Z,66.60
2018-03-18T23:57:54.814Z,66.50
